Dobrodošli na spletni strani vremenske postaje Senovo. Vse informacije so informativnega značaja, saj vremenska postaja ni del državne mreže meteoroloških postaj. AKTUALNIH OBVESTIL NI.


Posebna pozornost v zvezi z vremenskimi dogajanji ni potrebna.    Posebna pozornost v zvezi z vremenskimi dogajanji ni potrebna.

Pogled proti Armezu več informacij Pogled proti Armezu


Lisca več informacij Lisca


Radar strel več informacij blitzortung!


Radar padavin več informacij rain snow radar


Obiščite še:

Template documentation
and downloads

And another site



Weather Underground, zgodovina - Tekstovno

Dnevni povzetek za Februar 5, 2018 Enote:  Obe    Angleško   Metrično
« Predhodni Dan
Naslednji Dan »
Dnevni Tedenski Mesečni Letni Po meri
  Višja: Nižja: Povprečje:
Temperatura: TemperatureC °F /  -17.8 °C -0.7 °F /  -18.2 °C 0.5 °F /  -17.5 °C
Točka rosišča: DewpointC °F /  -17.8 °C -1.5 °F /  -18.6 °C -0.6 °F /  -18.1 °C
Vlažnost: Humidity % 87 % 92 %
Hitrost vetra: WindSpeedKMH mph /  0 km/h - 1.8 mph /  2.9 km/h
Sunki vetra: WindSpeedGustKMH mph /  0 km/h - -
Veter:- - SSE
Zračni tlak: PressurehPa in /  0 hPa 1019.9 in /  34533.8 hPa -
Padavine: 0.0 in /  0 mm    
Historical Graphs
 
 
Tabelarni podarki za Februar 5, 2018
Čas Temperatura Točka rosišča Zračni tlak Veter Hitrost vetra Sunki vetra Vlažnost Intenziteta padavin (urna)
TemperatureC °F /  -17.8 °C DewpointC °F /  -17.8 °C PressurehPa in /  0 hPa Calm     Humidity % HourlyPrecipMM in /  0 mm
00:01 -0.3 °F /  -17.9 °C -1.0 °F /  -18.3 °C 1020.9 in /  34567.7 hPa Calm     95 % 0.0 in /  0 mm
00:06 -0.3 °F /  -17.9 °C -1.0 °F /  -18.3 °C 1020.9 in /  34567.7 hPa ENE 1.3 mph /  2.1 km/h 5.5 mph /  8.9 km/h 95 % 0.0 in /  0 mm
00:11 -0.3 °F /  -17.9 °C -1.0 °F /  -18.3 °C 1019.9 in /  34533.8 hPa ENE 2.7 mph /  4.3 km/h 5.5 mph /  8.9 km/h 95 % 0.0 in /  0 mm
00:16 -0.3 °F /  -17.9 °C -1.0 °F /  -18.3 °C 1019.9 in /  34533.8 hPa ENE 2.9 mph /  4.7 km/h 4.7 mph /  7.6 km/h 95 % 0.0 in /  0 mm
00:21 -0.3 °F /  -17.9 °C -1.0 °F /  -18.3 °C 1019.9 in /  34533.8 hPa East 3.2 mph /  5.1 km/h 5.5 mph /  8.9 km/h 95 % 0.0 in /  0 mm
00:26 -0.4 °F /  -18 °C -1.1 °F /  -18.4 °C 1020.9 in /  34567.7 hPa ENE 4.0 mph /  6.4 km/h 6.9 mph /  11.1 km/h 95 % 0.0 in /  0 mm
00:31 -0.4 °F /  -18 °C -1.1 °F /  -18.4 °C 1020.9 in /  34567.7 hPa ENE 4.0 mph /  6.4 km/h 6.9 mph /  11.1 km/h 95 % 0.0 in /  0 mm
00:36 -0.4 °F /  -18 °C -1.1 °F /  -18.4 °C 1020.9 in /  34567.7 hPa East 2.9 mph /  4.7 km/h 5.5 mph /  8.9 km/h 95 % 0.0 in /  0 mm
00:41 -0.4 °F /  -18 °C -1.1 °F /  -18.4 °C 1020.9 in /  34567.7 hPa East 2.9 mph /  4.7 km/h 5.0 mph /  8 km/h 95 % 0.0 in /  0 mm
00:46 -0.4 °F /  -18 °C -1.1 °F /  -18.4 °C 1020.9 in /  34567.7 hPa ESE 3.5 mph /  5.6 km/h 5.5 mph /  8.9 km/h 95 % 0.0 in /  0 mm
00:51 -0.4 °F /  -18 °C -1.1 °F /  -18.4 °C 1020.9 in /  34567.7 hPa ESE 3.9 mph /  6.3 km/h 6.1 mph /  9.8 km/h 95 % 0.0 in /  0 mm
00:56 -0.4 °F /  -18 °C -1.1 °F /  -18.4 °C 1019.9 in /  34533.8 hPa East 4.2 mph /  6.8 km/h 6.1 mph /  9.8 km/h 95 % 0.0 in /  0 mm
01:01 -0.4 °F /  -18 °C -1.1 °F /  -18.4 °C 1019.9 in /  34533.8 hPa East 3.9 mph /  6.3 km/h 6.1 mph /  9.8 km/h 95 % 0.0 in /  0 mm
01:06 -0.4 °F /  -18 °C -1.1 °F /  -18.4 °C 1019.9 in /  34533.8 hPa East 3.2 mph /  5.1 km/h 5.8 mph /  9.3 km/h 95 % 0.0 in /  0 mm
01:11 -0.4 °F /  -18 °C -1.1 °F /  -18.4 °C 1020.9 in /  34567.7 hPa East 2.6 mph /  4.2 km/h 5.8 mph /  9.3 km/h 95 % 0.0 in /  0 mm
01:16 -0.4 °F /  -18 °C -1.1 °F /  -18.4 °C 1020.9 in /  34567.7 hPa East 2.7 mph /  4.3 km/h 5.0 mph /  8 km/h 95 % 0.0 in /  0 mm
01:21 -0.4 °F /  -18 °C -1.1 °F /  -18.4 °C 1020.9 in /  34567.7 hPa East 3.5 mph /  5.6 km/h 5.0 mph /  8 km/h 95 % 0.0 in /  0 mm
01:26 -0.4 °F /  -18 °C -1.1 °F /  -18.4 °C 1020.9 in /  34567.7 hPa ENE 3.5 mph /  5.6 km/h 4.7 mph /  7.6 km/h 95 % 0.0 in /  0 mm
01:31 -0.4 °F /  -18 °C -1.1 °F /  -18.4 °C 1020.9 in /  34567.7 hPa ENE 3.9 mph /  6.3 km/h 5.0 mph /  8 km/h 95 % 0.0 in /  0 mm
01:34 -0.4 °F /  -18 °C -1.1 °F /  -18.4 °C 1020.9 in /  34567.7 hPa ENE 4.2 mph /  6.8 km/h 5.5 mph /  8.9 km/h 95 % 0.0 in /  0 mm
01:39 -0.4 °F /  -18 °C -1.1 °F /  -18.4 °C 1020.9 in /  34567.7 hPa ENE 4.2 mph /  6.8 km/h 5.8 mph /  9.3 km/h 95 % 0.0 in /  0 mm
01:44 -0.4 °F /  -18 °C -1.1 °F /  -18.4 °C 1019.9 in /  34533.8 hPa ENE 3.7 mph /  6 km/h 5.8 mph /  9.3 km/h 95 % 0.0 in /  0 mm
01:49 -0.4 °F /  -18 °C -1.1 °F /  -18.4 °C 1019.9 in /  34533.8 hPa ENE 2.4 mph /  3.9 km/h 5.0 mph /  8 km/h 95 % 0.0 in /  0 mm
01:54 -0.4 °F /  -18 °C -1.1 °F /  -18.4 °C 1019.9 in /  34533.8 hPa ENE 0.5 mph /  0.8 km/h 2.6 mph /  4.2 km/h 95 % 0.0 in /  0 mm
01:59 -0.4 °F /  -18 °C -1.1 °F /  -18.4 °C 1019.9 in /  34533.8 hPa ENE 0.5 mph /  0.8 km/h 4.0 mph /  6.4 km/h 95 % 0.0 in /  0 mm
02:04 -0.4 °F /  -18 °C -1.1 °F /  -18.4 °C 1019.9 in /  34533.8 hPa East 1.8 mph /  2.9 km/h 4.0 mph /  6.4 km/h 95 % 0.0 in /  0 mm
02:09 -0.4 °F /  -18 °C -1.1 °F /  -18.4 °C 1019.9 in /  34533.8 hPa East 2.1 mph /  3.4 km/h 4.7 mph /  7.6 km/h 95 % 0.0 in /  0 mm
02:14 -0.4 °F /  -18 °C -1.1 °F /  -18.4 °C 1020.9 in /  34567.7 hPa East 2.6 mph /  4.2 km/h 4.7 mph /  7.6 km/h 95 % 0.0 in /  0 mm
02:19 -0.4 °F /  -18 °C -1.1 °F /  -18.4 °C 1020.9 in /  34567.7 hPa East 3.2 mph /  5.1 km/h 5.5 mph /  8.9 km/h 95 % 0.0 in /  0 mm
02:24 -0.3 °F /  -17.9 °C -1.0 °F /  -18.3 °C 1020.9 in /  34567.7 hPa East 3.4 mph /  5.5 km/h 5.5 mph /  8.9 km/h 95 % 0.0 in /  0 mm
02:29 -0.3 °F /  -17.9 °C -1.0 °F /  -18.3 °C 1020.9 in /  34567.7 hPa ESE 2.9 mph /  4.7 km/h 4.7 mph /  7.6 km/h 95 % 0.0 in /  0 mm
02:34 -0.3 °F /  -17.9 °C -1.0 °F /  -18.3 °C 1020.9 in /  34567.7 hPa ESE 1.9 mph /  3.1 km/h 4.7 mph /  7.6 km/h 95 % 0.0 in /  0 mm
02:39 -0.4 °F /  -18 °C -1.1 °F /  -18.4 °C 1020.9 in /  34567.7 hPa East 2.3 mph /  3.7 km/h 4.7 mph /  7.6 km/h 95 % 0.0 in /  0 mm
02:44 -0.4 °F /  -18 °C -1.1 °F /  -18.4 °C 1020.9 in /  34567.7 hPa East 2.9 mph /  4.7 km/h 4.7 mph /  7.6 km/h 95 % 0.0 in /  0 mm
02:49 -0.4 °F /  -18 °C -1.1 °F /  -18.4 °C 1020.9 in /  34567.7 hPa East 3.4 mph /  5.5 km/h 5.0 mph /  8 km/h 95 % 0.0 in /  0 mm
02:54 -0.4 °F /  -18 °C -1.1 °F /  -18.4 °C 1020.9 in /  34567.7 hPa East 3.7 mph /  6 km/h 5.5 mph /  8.9 km/h 95 % 0.0 in /  0 mm
02:59 -0.4 °F /  -18 °C -1.1 °F /  -18.4 °C 1020.9 in /  34567.7 hPa East 3.7 mph /  6 km/h 5.5 mph /  8.9 km/h 95 % 0.0 in /  0 mm
03:04 -0.4 °F /  -18 °C -1.1 °F /  -18.4 °C 1020.9 in /  34567.7 hPa East 3.2 mph /  5.1 km/h 5.5 mph /  8.9 km/h 95 % 0.0 in /  0 mm
03:09 -0.4 °F /  -18 °C -1.1 °F /  -18.4 °C 1020.9 in /  34567.7 hPa East 3.1 mph /  5 km/h 5.0 mph /  8 km/h 95 % 0.0 in /  0 mm
03:14 -0.4 °F /  -18 °C -1.1 °F /  -18.4 °C 1020.9 in /  34567.7 hPa East 3.4 mph /  5.5 km/h 5.0 mph /  8 km/h 95 % 0.0 in /  0 mm
03:19 -0.4 °F /  -18 °C -1.1 °F /  -18.4 °C 1020.9 in /  34567.7 hPa East 3.1 mph /  5 km/h 5.0 mph /  8 km/h 95 % 0.0 in /  0 mm
03:24 -0.5 °F /  -18.1 °C -1.2 °F /  -18.4 °C 1020.9 in /  34567.7 hPa ESE 3.1 mph /  5 km/h 5.0 mph /  8 km/h 95 % 0.0 in /  0 mm
03:29 -0.5 °F /  -18.1 °C -1.2 °F /  -18.4 °C 1020.9 in /  34567.7 hPa ESE 3.2 mph /  5.1 km/h 5.0 mph /  8 km/h 95 % 0.0 in /  0 mm
03:34 -0.5 °F /  -18.1 °C -1.2 °F /  -18.4 °C 1020.9 in /  34567.7 hPa East 2.7 mph /  4.3 km/h 4.7 mph /  7.6 km/h 95 % 0.0 in /  0 mm
03:39 -0.5 °F /  -18.1 °C -1.2 °F /  -18.4 °C 1020.9 in /  34567.7 hPa East 2.3 mph /  3.7 km/h 4.0 mph /  6.4 km/h 95 % 0.0 in /  0 mm
03:44 -0.5 °F /  -18.1 °C -1.2 °F /  -18.4 °C 1021.9 in /  34601.5 hPa ESE 2.6 mph /  4.2 km/h 4.0 mph /  6.4 km/h 95 % 0.0 in /  0 mm
03:49 -0.5 °F /  -18.1 °C -1.2 °F /  -18.4 °C 1021.9 in /  34601.5 hPa East 2.9 mph /  4.7 km/h 5.5 mph /  8.9 km/h 95 % 0.0 in /  0 mm
03:54 -0.5 °F /  -18.1 °C -1.2 °F /  -18.4 °C 1021.9 in /  34601.5 hPa East 2.9 mph /  4.7 km/h 5.5 mph /  8.9 km/h 95 % 0.0 in /  0 mm
03:59 -0.5 °F /  -18.1 °C -1.2 °F /  -18.4 °C 1020.9 in /  34567.7 hPa East 2.4 mph /  3.9 km/h 5.0 mph /  8 km/h 95 % 0.0 in /  0 mm
04:04 -0.5 °F /  -18.1 °C -1.2 °F /  -18.4 °C 1020.9 in /  34567.7 hPa East 1.9 mph /  3.1 km/h 4.3 mph /  6.9 km/h 95 % 0.0 in /  0 mm
04:09 -0.5 °F /  -18.1 °C -1.2 °F /  -18.4 °C 1020.9 in /  34567.7 hPa East 1.6 mph /  2.6 km/h 4.3 mph /  6.9 km/h 95 % 0.0 in /  0 mm
04:14 -0.5 °F /  -18.1 °C -1.2 °F /  -18.4 °C 1021.9 in /  34601.5 hPa ESE 1.6 mph /  2.6 km/h 4.0 mph /  6.4 km/h 95 % 0.0 in /  0 mm
04:19 -0.5 °F /  -18.1 °C -1.2 °F /  -18.4 °C 1021.9 in /  34601.5 hPa ESE 1.1 mph /  1.8 km/h 4.0 mph /  6.4 km/h 95 % 0.0 in /  0 mm
04:24 -0.5 °F /  -18.1 °C -1.2 °F /  -18.4 °C 1021.9 in /  34601.5 hPa NNE 0.6 mph /  1 km/h 3.2 mph /  5.1 km/h 95 % 0.0 in /  0 mm
04:29 -0.5 °F /  -18.1 °C -1.2 °F /  -18.4 °C 1021.9 in /  34601.5 hPa NNE 0.8 mph /  1.3 km/h 3.2 mph /  5.1 km/h 95 % 0.0 in /  0 mm
04:34 -0.6 °F /  -18.1 °C -1.3 °F /  -18.5 °C 1021.9 in /  34601.5 hPa ENE 1.4 mph /  2.3 km/h 4.7 mph /  7.6 km/h 95 % 0.0 in /  0 mm
04:39 -0.6 °F /  -18.1 °C -1.3 °F /  -18.5 °C 1021.9 in /  34601.5 hPa East 1.6 mph /  2.6 km/h 4.7 mph /  7.6 km/h 95 % 0.0 in /  0 mm
04:44 -0.6 °F /  -18.1 °C -1.3 °F /  -18.5 °C 1021.9 in /  34601.5 hPa East 0.5 mph /  0.8 km/h 4.0 mph /  6.4 km/h 95 % 0.0 in /  0 mm
04:49 -0.6 °F /  -18.1 °C -1.3 °F /  -18.5 °C 1021.9 in /  34601.5 hPa NE 0.8 mph /  1.3 km/h 3.5 mph /  5.6 km/h 95 % 0.0 in /  0 mm
04:54 -0.6 °F /  -18.1 °C -1.3 °F /  -18.5 °C 1021.9 in /  34601.5 hPa ENE 1.3 mph /  2.1 km/h 3.5 mph /  5.6 km/h 95 % 0.0 in /  0 mm
04:59 -0.6 °F /  -18.1 °C -1.3 °F /  -18.5 °C 1022.9 in /  34635.4 hPa East 1.6 mph /  2.6 km/h 5.5 mph /  8.9 km/h 95 % 0.0 in /  0 mm
05:04 -0.6 °F /  -18.1 °C -1.3 °F /  -18.5 °C 1022.9 in /  34635.4 hPa East 3.1 mph /  5 km/h 5.5 mph /  8.9 km/h 95 % 0.0 in /  0 mm
05:09 -0.7 °F /  -18.2 °C -1.4 °F /  -18.6 °C 1022.9 in /  34635.4 hPa East 2.7 mph /  4.3 km/h 5.0 mph /  8 km/h 95 % 0.0 in /  0 mm
05:14 -0.7 °F /  -18.2 °C -1.4 °F /  -18.6 °C 1022.9 in /  34635.4 hPa East 1.8 mph /  2.9 km/h 5.5 mph /  8.9 km/h 95 % 0.0 in /  0 mm
05:19 -0.7 °F /  -18.2 °C -1.4 °F /  -18.6 °C 1022.9 in /  34635.4 hPa East 1.4 mph /  2.3 km/h 5.5 mph /  8.9 km/h 95 % 0.0 in /  0 mm
05:24 -0.7 °F /  -18.2 °C -1.4 °F /  -18.6 °C 1022.9 in /  34635.4 hPa East 1.1 mph /  1.8 km/h 4.0 mph /  6.4 km/h 95 % 0.0 in /  0 mm
05:29 -0.7 °F /  -18.2 °C -1.4 °F /  -18.6 °C 1022.9 in /  34635.4 hPa ENE 0.8 mph /  1.3 km/h 4.0 mph /  6.4 km/h 95 % 0.0 in /  0 mm
05:34 -0.7 °F /  -18.2 °C -1.4 °F /  -18.6 °C 1022.9 in /  34635.4 hPa ENE 0.2 mph /  0.3 km/h 1.8 mph /  2.9 km/h 95 % 0.0 in /  0 mm
05:39 -0.7 °F /  -18.2 °C -1.4 °F /  -18.6 °C 1022.9 in /  34635.4 hPa Calm     95 % 0.0 in /  0 mm
05:44 -0.7 °F /  -18.2 °C -1.4 °F /  -18.6 °C 1022.9 in /  34635.4 hPa East 0.8 mph /  1.3 km/h 4.7 mph /  7.6 km/h 95 % 0.0 in /  0 mm
05:49 -0.7 °F /  -18.2 °C -1.4 °F /  -18.6 °C 1022.9 in /  34635.4 hPa East 1.3 mph /  2.1 km/h 4.7 mph /  7.6 km/h 95 % 0.0 in /  0 mm
05:54 -0.7 °F /  -18.2 °C -1.4 °F /  -18.6 °C 1022.9 in /  34635.4 hPa East 0.6 mph /  1 km/h 4.0 mph /  6.4 km/h 95 % 0.0 in /  0 mm
05:59 -0.7 °F /  -18.2 °C -1.4 °F /  -18.6 °C 1022.9 in /  34635.4 hPa Calm   1.4 mph /  2.3 km/h 95 % 0.0 in /  0 mm
06:04 -0.7 °F /  -18.2 °C -1.4 °F /  -18.6 °C 1022.9 in /  34635.4 hPa Calm     95 % 0.0 in /  0 mm
06:09 -0.6 °F /  -18.1 °C -1.3 °F /  -18.5 °C 1022.9 in /  34635.4 hPa Calm     95 % 0.0 in /  0 mm
06:14 -0.6 °F /  -18.1 °C -1.3 °F /  -18.5 °C 1022.9 in /  34635.4 hPa Calm   2.6 mph /  4.2 km/h 95 % 0.0 in /  0 mm
06:19 -0.6 °F /  -18.1 °C -1.3 °F /  -18.5 °C 1022.9 in /  34635.4 hPa East 0.5 mph /  0.8 km/h 2.6 mph /  4.2 km/h 95 % 0.0 in /  0 mm
06:24 -0.6 °F /  -18.1 °C -1.3 °F /  -18.5 °C 1022.9 in /  34635.4 hPa East 0.5 mph /  0.8 km/h 2.6 mph /  4.2 km/h 95 % 0.0 in /  0 mm
06:29 -0.5 °F /  -18.1 °C -1.2 °F /  -18.4 °C 1022.9 in /  34635.4 hPa Calm     95 % 0.0 in /  0 mm
06:34 -0.5 °F /  -18.1 °C -1.2 °F /  -18.4 °C 1022.9 in /  34635.4 hPa Calm   2.1 mph /  3.4 km/h 95 % 0.0 in /  0 mm
06:39 -0.5 °F /  -18.1 °C -1.2 °F /  -18.4 °C 1022.9 in /  34635.4 hPa Calm   2.1 mph /  3.4 km/h 95 % 0.0 in /  0 mm
06:44 -0.5 °F /  -18.1 °C -1.2 °F /  -18.4 °C 1022.9 in /  34635.4 hPa Calm   2.1 mph /  3.4 km/h 95 % 0.0 in /  0 mm
06:49 -0.4 °F /  -18 °C -1.1 °F /  -18.4 °C 1022.9 in /  34635.4 hPa Calm     95 % 0.0 in /  0 mm
06:54 -0.4 °F /  -18 °C -1.1 °F /  -18.4 °C 1022.9 in /  34635.4 hPa Calm     95 % 0.0 in /  0 mm
06:59 -0.4 °F /  -18 °C -1.1 °F /  -18.4 °C 1022.9 in /  34635.4 hPa Calm     95 % 0.0 in /  0 mm
07:04 -0.4 °F /  -18 °C -1.1 °F /  -18.4 °C 1022.9 in /  34635.4 hPa Calm     95 % 0.0 in /  0 mm
07:09 -0.4 °F /  -18 °C -1.1 °F /  -18.4 °C 1022.9 in /  34635.4 hPa Calm     95 % 0.0 in /  0 mm
07:14 -0.4 °F /  -18 °C -1.1 °F /  -18.4 °C 1022.9 in /  34635.4 hPa Calm     95 % 0.0 in /  0 mm
07:19 -0.4 °F /  -18 °C -1.1 °F /  -18.4 °C 1022.9 in /  34635.4 hPa Calm     95 % 0.0 in /  0 mm
07:24 -0.3 °F /  -17.9 °C -1.0 °F /  -18.3 °C 1022.9 in /  34635.4 hPa Calm     95 % 0.0 in /  0 mm
07:29 -0.3 °F /  -17.9 °C -1.0 °F /  -18.3 °C 1021.9 in /  34601.5 hPa Calm     95 % 0.0 in /  0 mm
07:34 -0.3 °F /  -17.9 °C -1.0 °F /  -18.3 °C 1021.9 in /  34601.5 hPa Calm     95 % 0.0 in /  0 mm
07:39 -0.3 °F /  -17.9 °C -1.0 °F /  -18.3 °C 1021.9 in /  34601.5 hPa Calm     95 % 0.0 in /  0 mm
07:44 -0.3 °F /  -17.9 °C -1.0 °F /  -18.3 °C 1022.9 in /  34635.4 hPa NE 0.5 mph /  0.8 km/h 3.2 mph /  5.1 km/h 95 % 0.0 in /  0 mm
07:49 -0.2 °F /  -17.9 °C -0.9 °F /  -18.3 °C 1022.9 in /  34635.4 hPa NE 1.0 mph /  1.6 km/h 3.2 mph /  5.1 km/h 95 % 0.0 in /  0 mm
07:54 -0.2 °F /  -17.9 °C -0.9 °F /  -18.3 °C 1022.9 in /  34635.4 hPa ENE 0.5 mph /  0.8 km/h 2.6 mph /  4.2 km/h 95 % 0.0 in /  0 mm
07:59 -0.1 °F /  -17.8 °C -0.8 °F /  -18.2 °C 1022.9 in /  34635.4 hPa East 0.3 mph /  0.5 km/h 2.6 mph /  4.2 km/h 95 % 0.0 in /  0 mm
08:04 -0.1 °F /  -17.8 °C -0.8 °F /  -18.2 °C 1022.9 in /  34635.4 hPa ESE 0.5 mph /  0.8 km/h 4.0 mph /  6.4 km/h 95 % 0.0 in /  0 mm
08:09 0.0 °F /  -17.8 °C -0.7 °F /  -18.2 °C 1022.9 in /  34635.4 hPa SE 0.6 mph /  1 km/h 4.0 mph /  6.4 km/h 95 % 0.0 in /  0 mm
08:14 0.0 °F /  -17.8 °C -0.7 °F /  -18.2 °C 1022.9 in /  34635.4 hPa SE 0.5 mph /  0.8 km/h 4.0 mph /  6.4 km/h 95 % 0.0 in /  0 mm
08:19 0.1 °F /  -17.7 °C -0.6 °F /  -18.1 °C 1022.9 in /  34635.4 hPa ENE 1.9 mph /  3.1 km/h 6.1 mph /  9.8 km/h 95 % 0.0 in /  0 mm
08:24 0.1 °F /  -17.7 °C -0.6 °F /  -18.1 °C 1022.9 in /  34635.4 hPa ENE 2.7 mph /  4.3 km/h 6.1 mph /  9.8 km/h 95 % 0.0 in /  0 mm
08:29 0.1 °F /  -17.7 °C -0.6 °F /  -18.1 °C 1022.9 in /  34635.4 hPa ESE 0.8 mph /  1.3 km/h 4.0 mph /  6.4 km/h 95 % 0.0 in /  0 mm
08:34 0.2 °F /  -17.7 °C -0.5 °F /  -18.1 °C 1022.9 in /  34635.4 hPa ESE 0.8 mph /  1.3 km/h 4.0 mph /  6.4 km/h 95 % 0.0 in /  0 mm
08:39 0.2 °F /  -17.7 °C -0.5 °F /  -18.1 °C 1022.9 in /  34635.4 hPa ESE 1.4 mph /  2.3 km/h 3.2 mph /  5.1 km/h 95 % 0.0 in /  0 mm
08:44 0.3 °F /  -17.6 °C -0.4 °F /  -18 °C 1023.9 in /  34669.3 hPa ESE 1.1 mph /  1.8 km/h 3.2 mph /  5.1 km/h 95 % 0.0 in /  0 mm
08:49 0.3 °F /  -17.6 °C -0.4 °F /  -18 °C 1023.9 in /  34669.3 hPa SE 0.3 mph /  0.5 km/h 1.8 mph /  2.9 km/h 95 % 0.0 in /  0 mm
08:54 0.3 °F /  -17.6 °C -0.4 °F /  -18 °C 1023.9 in /  34669.3 hPa ESE 0.3 mph /  0.5 km/h 2.6 mph /  4.2 km/h 95 % 0.0 in /  0 mm
08:59 0.3 °F /  -17.6 °C -0.4 °F /  -18 °C 1023.9 in /  34669.3 hPa East 0.3 mph /  0.5 km/h 5.0 mph /  8 km/h 95 % 0.0 in /  0 mm
09:04 0.3 °F /  -17.6 °C -0.4 °F /  -18 °C 1023.9 in /  34669.3 hPa East 0.8 mph /  1.3 km/h 5.0 mph /  8 km/h 95 % 0.0 in /  0 mm
09:09 0.3 °F /  -17.6 °C -0.4 °F /  -18 °C 1023.9 in /  34669.3 hPa East 1.0 mph /  1.6 km/h 3.5 mph /  5.6 km/h 95 % 0.0 in /  0 mm
09:14 0.4 °F /  -17.6 °C -0.3 °F /  -17.9 °C 1023.9 in /  34669.3 hPa ESE 1.1 mph /  1.8 km/h 4.3 mph /  6.9 km/h 95 % 0.0 in /  0 mm
09:19 0.4 °F /  -17.6 °C -0.3 °F /  -17.9 °C 1023.9 in /  34669.3 hPa ESE 2.4 mph /  3.9 km/h 5.0 mph /  8 km/h 95 % 0.0 in /  0 mm
09:24 0.5 °F /  -17.5 °C -0.2 °F /  -17.9 °C 1023.9 in /  34669.3 hPa ESE 2.7 mph /  4.3 km/h 5.0 mph /  8 km/h 95 % 0.0 in /  0 mm
09:29 0.5 °F /  -17.5 °C -0.2 °F /  -17.9 °C 1023.9 in /  34669.3 hPa ESE 1.9 mph /  3.1 km/h 4.3 mph /  6.9 km/h 95 % 0.0 in /  0 mm
09:34 0.6 °F /  -17.4 °C -0.1 °F /  -17.8 °C 1023.9 in /  34669.3 hPa ESE 2.1 mph /  3.4 km/h 5.0 mph /  8 km/h 95 % 0.0 in /  0 mm
09:39 0.6 °F /  -17.4 °C -0.1 °F /  -17.8 °C 1023.9 in /  34669.3 hPa ESE 3.2 mph /  5.1 km/h 5.0 mph /  8 km/h 95 % 0.0 in /  0 mm
09:44 0.7 °F /  -17.4 °C 0.0 °F /  -17.8 °C 1022.9 in /  34635.4 hPa East 3.4 mph /  5.5 km/h 5.0 mph /  8 km/h 95 % 0.0 in /  0 mm
09:49 0.7 °F /  -17.4 °C 0.0 °F /  -17.8 °C 1022.9 in /  34635.4 hPa ENE 3.2 mph /  5.1 km/h 5.8 mph /  9.3 km/h 95 % 0.0 in /  0 mm
09:54 0.7 °F /  -17.4 °C 0.0 °F /  -17.8 °C 1022.9 in /  34635.4 hPa ENE 2.1 mph /  3.4 km/h 5.8 mph /  9.3 km/h 95 % 0.0 in /  0 mm
09:59 0.7 °F /  -17.4 °C 0.0 °F /  -17.8 °C 1022.9 in /  34635.4 hPa ENE 1.4 mph /  2.3 km/h 4.7 mph /  7.6 km/h 95 % 0.0 in /  0 mm
10:04 0.7 °F /  -17.4 °C 0.0 °F /  -17.8 °C 1022.9 in /  34635.4 hPa ENE 1.3 mph /  2.1 km/h 4.7 mph /  7.6 km/h 95 % 0.0 in /  0 mm
10:09 0.7 °F /  -17.4 °C 0.0 °F /  -17.8 °C 1023.9 in /  34669.3 hPa East 1.3 mph /  2.1 km/h 3.5 mph /  5.6 km/h 95 % 0.0 in /  0 mm
10:14 0.7 °F /  -17.4 °C 0.0 °F /  -17.8 °C 1023.9 in /  34669.3 hPa ESE 1.9 mph /  3.1 km/h 3.5 mph /  5.6 km/h 95 % 0.0 in /  0 mm
10:19 0.8 °F /  -17.3 °C 0.1 °F /  -17.7 °C 1023.9 in /  34669.3 hPa SSE 1.4 mph /  2.3 km/h 4.0 mph /  6.4 km/h 95 % 0.0 in /  0 mm
10:24 0.8 °F /  -17.3 °C 0.1 °F /  -17.7 °C 1023.9 in /  34669.3 hPa SSW 1.8 mph /  2.9 km/h 4.3 mph /  6.9 km/h 95 % 0.0 in /  0 mm
10:30 0.8 °F /  -17.3 °C 0.1 °F /  -17.7 °C 1023.9 in /  34669.3 hPa SSW 3.1 mph /  5 km/h 4.3 mph /  6.9 km/h 95 % 0.0 in /  0 mm
10:35 0.8 °F /  -17.3 °C 0.1 °F /  -17.7 °C 1023.9 in /  34669.3 hPa SW 2.7 mph /  4.3 km/h 4.3 mph /  6.9 km/h 95 % 0.0 in /  0 mm
10:40 0.9 °F /  -17.3 °C 0.2 °F /  -17.7 °C 1023.9 in /  34669.3 hPa SW 1.9 mph /  3.1 km/h 4.0 mph /  6.4 km/h 95 % 0.0 in /  0 mm
10:45 0.9 °F /  -17.3 °C 0.2 °F /  -17.7 °C 1023.9 in /  34669.3 hPa SW 0.6 mph /  1 km/h 3.2 mph /  5.1 km/h 95 % 0.0 in /  0 mm
10:50 0.9 °F /  -17.3 °C 0.2 °F /  -17.7 °C 1023.9 in /  34669.3 hPa East 0.3 mph /  0.5 km/h 4.7 mph /  7.6 km/h 95 % 0.0 in /  0 mm
10:55 1.0 °F /  -17.2 °C 0.2 °F /  -17.7 °C 1022.9 in /  34635.4 hPa ENE 2.1 mph /  3.4 km/h 5.0 mph /  8 km/h 94 % 0.0 in /  0 mm
11:00 1.1 °F /  -17.2 °C 0.2 °F /  -17.7 °C 1022.9 in /  34635.4 hPa East 2.9 mph /  4.7 km/h 5.0 mph /  8 km/h 94 % 0.0 in /  0 mm
11:05 1.2 °F /  -17.1 °C 0.3 °F /  -17.6 °C 1022.9 in /  34635.4 hPa ESE 1.6 mph /  2.6 km/h 4.0 mph /  6.4 km/h 94 % 0.0 in /  0 mm
11:10 1.4 °F /  -17 °C 0.6 °F /  -17.4 °C 1022.9 in /  34635.4 hPa SE 1.0 mph /  1.6 km/h 3.5 mph /  5.6 km/h 94 % 0.0 in /  0 mm
11:15 1.5 °F /  -16.9 °C 0.8 °F /  -17.3 °C 1022.9 in /  34635.4 hPa SE 1.0 mph /  1.6 km/h 3.5 mph /  5.6 km/h 95 % 0.0 in /  0 mm
11:20 1.5 °F /  -16.9 °C 0.7 °F /  -17.4 °C 1022.9 in /  34635.4 hPa SSE 1.0 mph /  1.6 km/h 4.3 mph /  6.9 km/h 94 % 0.0 in /  0 mm
11:25 1.6 °F /  -16.9 °C 0.7 °F /  -17.4 °C 1022.9 in /  34635.4 hPa SSE 2.4 mph /  3.9 km/h 5.8 mph /  9.3 km/h 94 % 0.0 in /  0 mm
11:30 1.6 °F /  -16.9 °C 0.7 °F /  -17.4 °C 1022.9 in /  34635.4 hPa SSE 3.1 mph /  5 km/h 5.8 mph /  9.3 km/h 94 % 0.0 in /  0 mm
11:35 1.7 °F /  -16.8 °C 0.8 °F /  -17.3 °C 1022.9 in /  34635.4 hPa SSE 2.1 mph /  3.4 km/h 4.3 mph /  6.9 km/h 94 % 0.0 in /  0 mm
11:40 1.8 °F /  -16.8 °C 0.9 °F /  -17.3 °C 1022.9 in /  34635.4 hPa ESE 0.6 mph /  1 km/h 3.5 mph /  5.6 km/h 94 % 0.0 in /  0 mm
11:45 1.9 °F /  -16.7 °C 1.1 °F /  -17.2 °C 1022.9 in /  34635.4 hPa Calm     94 % 0.0 in /  0 mm
11:50 1.9 °F /  -16.7 °C 1.1 °F /  -17.2 °C 1022.9 in /  34635.4 hPa Calm     94 % 0.0 in /  0 mm
11:55 1.9 °F /  -16.7 °C 1.1 °F /  -17.2 °C 1021.9 in /  34601.5 hPa ENE 0.8 mph /  1.3 km/h 5.0 mph /  8 km/h 94 % 0.0 in /  0 mm
12:00 1.8 °F /  -16.8 °C 0.9 °F /  -17.3 °C 1021.9 in /  34601.5 hPa ENE 2.9 mph /  4.7 km/h 5.8 mph /  9.3 km/h 94 % 0.0 in /  0 mm
12:05 1.9 °F /  -16.7 °C 1.1 °F /  -17.2 °C 1021.9 in /  34601.5 hPa East 3.4 mph /  5.5 km/h 5.8 mph /  9.3 km/h 94 % 0.0 in /  0 mm
12:10 1.9 °F /  -16.7 °C 1.1 °F /  -17.2 °C 1022.9 in /  34635.4 hPa SE 2.7 mph /  4.3 km/h 5.0 mph /  8 km/h 94 % 0.0 in /  0 mm
12:15 2.0 °F /  -16.7 °C 1.0 °F /  -17.2 °C 1022.9 in /  34635.4 hPa South 2.4 mph /  3.9 km/h 5.5 mph /  8.9 km/h 93 % 0.0 in /  0 mm
12:20 1.9 °F /  -16.7 °C 1.1 °F /  -17.2 °C 1022.9 in /  34635.4 hPa SW 1.6 mph /  2.6 km/h 5.5 mph /  8.9 km/h 94 % 0.0 in /  0 mm
12:25 1.9 °F /  -16.7 °C 0.9 °F /  -17.3 °C 1022.9 in /  34635.4 hPa WSW 1.3 mph /  2.1 km/h 4.7 mph /  7.6 km/h 93 % 0.0 in /  0 mm
12:30 1.9 °F /  -16.7 °C 0.9 °F /  -17.3 °C 1022.9 in /  34635.4 hPa West 0.8 mph /  1.3 km/h 3.2 mph /  5.1 km/h 93 % 0.0 in /  0 mm
12:35 1.9 °F /  -16.7 °C 0.9 °F /  -17.3 °C 1022.9 in /  34635.4 hPa Calm     93 % 0.0 in /  0 mm
12:40 1.9 °F /  -16.7 °C 0.9 °F /  -17.3 °C 1021.9 in /  34601.5 hPa Calm   4.0 mph /  6.4 km/h 93 % 0.0 in /  0 mm
12:45 1.9 °F /  -16.7 °C 0.9 °F /  -17.3 °C 1021.9 in /  34601.5 hPa WSW 1.3 mph /  2.1 km/h 4.7 mph /  7.6 km/h 93 % 0.0 in /  0 mm
12:50 1.9 °F /  -16.7 °C 0.9 °F /  -17.3 °C 1021.9 in /  34601.5 hPa WSW 3.1 mph /  5 km/h 6.9 mph /  11.1 km/h 93 % 0.0 in /  0 mm
12:55 1.9 °F /  -16.7 °C 0.7 °F /  -17.4 °C 1023.9 in /  34669.3 hPa WSW 1.9 mph /  3.1 km/h 6.9 mph /  11.1 km/h 92 % 0.0 in /  0 mm
13:00 1.8 °F /  -16.8 °C 0.6 °F /  -17.4 °C 1023.9 in /  34669.3 hPa WSW 0.5 mph /  0.8 km/h 2.1 mph /  3.4 km/h 92 % 0.0 in /  0 mm
13:05 1.9 °F /  -16.7 °C 0.7 °F /  -17.4 °C 1023.9 in /  34669.3 hPa WSW 0.3 mph /  0.5 km/h 2.6 mph /  4.2 km/h 92 % 0.0 in /  0 mm
13:10 1.9 °F /  -16.7 °C 0.7 °F /  -17.4 °C 1022.9 in /  34635.4 hPa NW 0.6 mph /  1 km/h 3.5 mph /  5.6 km/h 92 % 0.0 in /  0 mm
13:15 1.9 °F /  -16.7 °C 0.7 °F /  -17.4 °C 1022.9 in /  34635.4 hPa WNW 1.4 mph /  2.3 km/h 4.7 mph /  7.6 km/h 92 % 0.0 in /  0 mm
13:20 1.9 °F /  -16.7 °C 0.7 °F /  -17.4 °C 1022.9 in /  34635.4 hPa WNW 1.1 mph /  1.8 km/h 4.7 mph /  7.6 km/h 92 % 0.0 in /  0 mm
13:25 1.9 °F /  -16.7 °C 0.7 °F /  -17.4 °C 1022.9 in /  34635.4 hPa West 0.8 mph /  1.3 km/h 4.3 mph /  6.9 km/h 92 % 0.0 in /  0 mm
13:30 1.9 °F /  -16.7 °C 0.6 °F /  -17.4 °C 1022.9 in /  34635.4 hPa NW 0.8 mph /  1.3 km/h 3.5 mph /  5.6 km/h 91 % 0.0 in /  0 mm
13:35 1.8 °F /  -16.8 °C 0.5 °F /  -17.5 °C 1022.9 in /  34635.4 hPa North 1.1 mph /  1.8 km/h 4.3 mph /  6.9 km/h 91 % 0.0 in /  0 mm
13:40 1.8 °F /  -16.8 °C 0.5 °F /  -17.5 °C 1021.9 in /  34601.5 hPa North 1.0 mph /  1.6 km/h 4.3 mph /  6.9 km/h 91 % 0.0 in /  0 mm
13:45 1.9 °F /  -16.7 °C 0.6 °F /  -17.4 °C 1021.9 in /  34601.5 hPa NE 0.5 mph /  0.8 km/h 4.0 mph /  6.4 km/h 91 % 0.0 in /  0 mm
13:50 1.9 °F /  -16.7 °C 0.6 °F /  -17.4 °C 1021.9 in /  34601.5 hPa NE 0.8 mph /  1.3 km/h 4.0 mph /  6.4 km/h 91 % 0.0 in /  0 mm
13:55 1.9 °F /  -16.7 °C 0.6 °F /  -17.4 °C 1021.9 in /  34601.5 hPa NNE 0.6 mph /  1 km/h 3.2 mph /  5.1 km/h 91 % 0.0 in /  0 mm
14:00 1.9 °F /  -16.7 °C 0.6 °F /  -17.4 °C 1021.9 in /  34601.5 hPa NNE 0.3 mph /  0.5 km/h 3.2 mph /  5.1 km/h 91 % 0.0 in /  0 mm
14:05 2.0 °F /  -16.7 °C 0.6 °F /  -17.4 °C 1021.9 in /  34601.5 hPa SW 1.0 mph /  1.6 km/h 4.3 mph /  6.9 km/h 90 % 0.0 in /  0 mm
14:10 1.9 °F /  -16.7 °C 0.4 °F /  -17.6 °C 1021.9 in /  34601.5 hPa WSW 2.1 mph /  3.4 km/h 4.7 mph /  7.6 km/h 90 % 0.0 in /  0 mm
14:16 1.9 °F /  -16.7 °C 0.4 °F /  -17.6 °C 1021.9 in /  34601.5 hPa WSW 1.3 mph /  2.1 km/h 4.7 mph /  7.6 km/h 90 % 0.0 in /  0 mm
14:21 1.9 °F /  -16.7 °C 0.4 °F /  -17.6 °C 1021.9 in /  34601.5 hPa SW 1.9 mph /  3.1 km/h 4.3 mph /  6.9 km/h 90 % 0.0 in /  0 mm
14:26 1.9 °F /  -16.7 °C 0.4 °F /  -17.6 °C 1021.9 in /  34601.5 hPa WSW 2.4 mph /  3.9 km/h 4.3 mph /  6.9 km/h 90 % 0.0 in /  0 mm
14:31 1.9 °F /  -16.7 °C 0.4 °F /  -17.6 °C 1021.9 in /  34601.5 hPa SW 1.3 mph /  2.1 km/h 4.0 mph /  6.4 km/h 90 % 0.0 in /  0 mm
14:36 1.9 °F /  -16.7 °C 0.4 °F /  -17.6 °C 1021.9 in /  34601.5 hPa WSW 0.8 mph /  1.3 km/h 4.0 mph /  6.4 km/h 90 % 0.0 in /  0 mm
14:41 1.9 °F /  -16.7 °C 0.4 °F /  -17.6 °C 1021.9 in /  34601.5 hPa WNW 1.4 mph /  2.3 km/h 6.1 mph /  9.8 km/h 90 % 0.0 in /  0 mm
14:46 1.9 °F /  -16.7 °C 0.3 °F /  -17.6 °C 1021.9 in /  34601.5 hPa WNW 1.6 mph /  2.6 km/h 6.1 mph /  9.8 km/h 89 % 0.0 in /  0 mm
14:51 1.9 °F /  -16.7 °C 0.3 °F /  -17.6 °C 1021.9 in /  34601.5 hPa WNW 0.3 mph /  0.5 km/h 2.6 mph /  4.2 km/h 89 % 0.0 in /  0 mm
14:56 1.9 °F /  -16.7 °C 0.3 °F /  -17.6 °C 1021.9 in /  34601.5 hPa Calm     89 % 0.0 in /  0 mm
15:01 2.0 °F /  -16.7 °C 0.4 °F /  -17.6 °C 1021.9 in /  34601.5 hPa Calm     89 % 0.0 in /  0 mm
15:06 2.0 °F /  -16.7 °C 0.4 °F /  -17.6 °C 1021.9 in /  34601.5 hPa Calm     89 % 0.0 in /  0 mm
15:11 1.9 °F /  -16.7 °C 0.3 °F /  -17.6 °C 1021.9 in /  34601.5 hPa NW 0.2 mph /  0.3 km/h 2.6 mph /  4.2 km/h 89 % 0.0 in /  0 mm
15:16 1.9 °F /  -16.7 °C 0.3 °F /  -17.6 °C 1021.9 in /  34601.5 hPa NE 0.8 mph /  1.3 km/h 4.3 mph /  6.9 km/h 89 % 0.0 in /  0 mm
15:21 2.0 °F /  -16.7 °C 0.4 °F /  -17.6 °C 1021.9 in /  34601.5 hPa ENE 2.3 mph /  3.7 km/h 4.7 mph /  7.6 km/h 89 % 0.0 in /  0 mm
15:26 1.9 °F /  -16.7 °C 0.3 °F /  -17.6 °C 1020.9 in /  34567.7 hPa NE 2.7 mph /  4.3 km/h 4.7 mph /  7.6 km/h 89 % 0.0 in /  0 mm
15:31 2.0 °F /  -16.7 °C 0.2 °F /  -17.7 °C 1020.9 in /  34567.7 hPa East 2.3 mph /  3.7 km/h 4.0 mph /  6.4 km/h 88 % 0.0 in /  0 mm
15:36 2.0 °F /  -16.7 °C 0.2 °F /  -17.7 °C 1020.9 in /  34567.7 hPa SE 2.4 mph /  3.9 km/h 4.7 mph /  7.6 km/h 88 % 0.0 in /  0 mm
15:41 2.0 °F /  -16.7 °C 0.2 °F /  -17.7 °C 1020.9 in /  34567.7 hPa SSE 2.6 mph /  4.2 km/h 4.7 mph /  7.6 km/h 88 % 0.0 in /  0 mm
15:46 2.0 °F /  -16.7 °C 0.2 °F /  -17.7 °C 1020.9 in /  34567.7 hPa SSE 1.8 mph /  2.9 km/h 4.0 mph /  6.4 km/h 88 % 0.0 in /  0 mm
15:51 1.9 °F /  -16.7 °C 0.1 °F /  -17.7 °C 1020.9 in /  34567.7 hPa SSE 0.5 mph /  0.8 km/h 3.2 mph /  5.1 km/h 88 % 0.0 in /  0 mm
15:56 1.9 °F /  -16.7 °C 0.1 °F /  -17.7 °C 1020.9 in /  34567.7 hPa SW 0.2 mph /  0.3 km/h 3.2 mph /  5.1 km/h 88 % 0.0 in /  0 mm
16:01 1.9 °F /  -16.7 °C 0.1 °F /  -17.7 °C 1020.9 in /  34567.7 hPa SW 0.2 mph /  0.3 km/h 3.2 mph /  5.1 km/h 88 % 0.0 in /  0 mm
16:06 1.8 °F /  -16.8 °C 0.0 °F /  -17.8 °C 1020.9 in /  34567.7 hPa SW 1.0 mph /  1.6 km/h 3.5 mph /  5.6 km/h 88 % 0.0 in /  0 mm
16:11 1.7 °F /  -16.8 °C -0.1 °F /  -17.8 °C 1020.9 in /  34567.7 hPa SW 1.8 mph /  2.9 km/h 3.5 mph /  5.6 km/h 88 % 0.0 in /  0 mm
16:16 1.7 °F /  -16.8 °C -0.1 °F /  -17.8 °C 1020.9 in /  34567.7 hPa SW 1.0 mph /  1.6 km/h 2.6 mph /  4.2 km/h 88 % 0.0 in /  0 mm
16:21 1.7 °F /  -16.8 °C -0.1 °F /  -17.8 °C 1020.9 in /  34567.7 hPa North 0.2 mph /  0.3 km/h   88 % 0.0 in /  0 mm
16:26 1.7 °F /  -16.8 °C -0.1 °F /  -17.8 °C 1020.9 in /  34567.7 hPa Calm     88 % 0.0 in /  0 mm
16:31 1.7 °F /  -16.8 °C -0.1 °F /  -17.8 °C 1020.9 in /  34567.7 hPa SSW 0.6 mph /  1 km/h 5.5 mph /  8.9 km/h 88 % 0.0 in /  0 mm
16:36 1.7 °F /  -16.8 °C -0.1 °F /  -17.8 °C 1020.9 in /  34567.7 hPa SSE 1.6 mph /  2.6 km/h 5.5 mph /  8.9 km/h 88 % 0.0 in /  0 mm
16:41 1.6 °F /  -16.9 °C -0.2 °F /  -17.9 °C 1019.9 in /  34533.8 hPa SE 2.6 mph /  4.2 km/h 5.8 mph /  9.3 km/h 88 % 0.0 in /  0 mm
16:46 1.6 °F /  -16.9 °C -0.2 °F /  -17.9 °C 1019.9 in /  34533.8 hPa SE 3.5 mph /  5.6 km/h 6.9 mph /  11.1 km/h 88 % 0.0 in /  0 mm
16:51 1.6 °F /  -16.9 °C -0.2 °F /  -17.9 °C 1019.9 in /  34533.8 hPa SE 4.8 mph /  7.7 km/h 8.7 mph /  14 km/h 88 % 0.0 in /  0 mm
16:56 1.5 °F /  -16.9 °C -0.3 °F /  -17.9 °C 1020.9 in /  34567.7 hPa SE 4.5 mph /  7.2 km/h 8.7 mph /  14 km/h 88 % 0.0 in /  0 mm
17:01 1.4 °F /  -17 °C -0.4 °F /  -18 °C 1020.9 in /  34567.7 hPa SE 3.1 mph /  5 km/h 5.8 mph /  9.3 km/h 88 % 0.0 in /  0 mm
17:06 1.4 °F /  -17 °C -0.4 °F /  -18 °C 1020.9 in /  34567.7 hPa SSE 3.4 mph /  5.5 km/h 5.8 mph /  9.3 km/h 88 % 0.0 in /  0 mm
17:11 1.4 °F /  -17 °C -0.4 °F /  -18 °C 1019.9 in /  34533.8 hPa SSW 3.2 mph /  5.1 km/h 6.4 mph /  10.3 km/h 88 % 0.0 in /  0 mm
17:16 1.3 °F /  -17.1 °C -0.6 °F /  -18.1 °C 1019.9 in /  34533.8 hPa WSW 3.4 mph /  5.5 km/h 6.4 mph /  10.3 km/h 87 % 0.0 in /  0 mm
17:21 1.3 °F /  -17.1 °C -0.6 °F /  -18.1 °C 1019.9 in /  34533.8 hPa West 3.5 mph /  5.6 km/h 6.4 mph /  10.3 km/h 87 % 0.0 in /  0 mm
17:26 1.2 °F /  -17.1 °C -0.7 °F /  -18.2 °C 1019.9 in /  34533.8 hPa SW 3.2 mph /  5.1 km/h 6.4 mph /  10.3 km/h 87 % 0.0 in /  0 mm
17:31 1.1 °F /  -17.2 °C -0.8 °F /  -18.2 °C 1019.9 in /  34533.8 hPa SW 3.5 mph /  5.6 km/h 6.4 mph /  10.3 km/h 87 % 0.0 in /  0 mm
17:36 1.1 °F /  -17.2 °C -0.8 °F /  -18.2 °C 1019.9 in /  34533.8 hPa SSW 3.1 mph /  5 km/h 6.1 mph /  9.8 km/h 87 % 0.0 in /  0 mm
17:41 1.1 °F /  -17.2 °C -0.8 °F /  -18.2 °C 1020.9 in /  34567.7 hPa SSW 2.3 mph /  3.7 km/h 5.0 mph /  8 km/h 87 % 0.0 in /  0 mm
17:46 1.1 °F /  -17.2 °C -0.8 °F /  -18.2 °C 1020.9 in /  34567.7 hPa SSW 2.7 mph /  4.3 km/h 5.5 mph /  8.9 km/h 87 % 0.0 in /  0 mm
17:51 1.1 °F /  -17.2 °C -0.8 °F /  -18.2 °C 1020.9 in /  34567.7 hPa SSW 2.9 mph /  4.7 km/h 5.5 mph /  8.9 km/h 87 % 0.0 in /  0 mm
17:54 1.0 °F /  -17.2 °C -0.9 °F /  -18.3 °C 1020.9 in /  34567.7 hPa SSW 2.4 mph /  3.9 km/h 5.5 mph /  8.9 km/h 87 % 0.0 in /  0 mm
17:59 1.0 °F /  -17.2 °C -0.9 °F /  -18.3 °C 1020.9 in /  34567.7 hPa SSW 2.4 mph /  3.9 km/h 5.8 mph /  9.3 km/h 87 % 0.0 in /  0 mm
18:04 1.0 °F /  -17.2 °C -0.8 °F /  -18.2 °C 1020.9 in /  34567.7 hPa SSW 3.7 mph /  6 km/h 5.8 mph /  9.3 km/h 88 % 0.0 in /  0 mm
18:09 1.0 °F /  -17.2 °C -0.8 °F /  -18.2 °C 1020.9 in /  34567.7 hPa SSW 3.4 mph /  5.5 km/h 5.0 mph /  8 km/h 88 % 0.0 in /  0 mm
18:14 1.0 °F /  -17.2 °C -0.8 °F /  -18.2 °C 1020.9 in /  34567.7 hPa SSW 2.4 mph /  3.9 km/h 5.5 mph /  8.9 km/h 88 % 0.0 in /  0 mm
18:19 1.0 °F /  -17.2 °C -0.8 °F /  -18.2 °C 1020.9 in /  34567.7 hPa South 1.6 mph /  2.6 km/h 5.5 mph /  8.9 km/h 88 % 0.0 in /  0 mm
18:24 1.0 °F /  -17.2 °C -0.8 °F /  -18.2 °C 1020.9 in /  34567.7 hPa South 0.8 mph /  1.3 km/h 4.3 mph /  6.9 km/h 88 % 0.0 in /  0 mm
18:29 0.9 °F /  -17.3 °C -0.9 °F /  -18.3 °C 1020.9 in /  34567.7 hPa SSE 0.5 mph /  0.8 km/h 3.2 mph /  5.1 km/h 88 % 0.0 in /  0 mm
18:34 0.9 °F /  -17.3 °C -0.9 °F /  -18.3 °C 1020.9 in /  34567.7 hPa SSE 1.1 mph /  1.8 km/h 5.0 mph /  8 km/h 88 % 0.0 in /  0 mm
18:39 0.9 °F /  -17.3 °C -0.9 °F /  -18.3 °C 1020.9 in /  34567.7 hPa SSE 1.3 mph /  2.1 km/h 5.0 mph /  8 km/h 88 % 0.0 in /  0 mm
18:44 0.9 °F /  -17.3 °C -0.9 °F /  -18.3 °C 1020.9 in /  34567.7 hPa South 1.1 mph /  1.8 km/h 4.3 mph /  6.9 km/h 88 % 0.0 in /  0 mm
18:49 0.9 °F /  -17.3 °C -0.9 °F /  -18.3 °C 1020.9 in /  34567.7 hPa South 0.8 mph /  1.3 km/h 3.2 mph /  5.1 km/h 88 % 0.0 in /  0 mm
18:54 0.9 °F /  -17.3 °C -0.9 °F /  -18.3 °C 1020.9 in /  34567.7 hPa South 0.3 mph /  0.5 km/h 2.1 mph /  3.4 km/h 88 % 0.0 in /  0 mm
18:59 0.9 °F /  -17.3 °C -0.9 °F /  -18.3 °C 1020.9 in /  34567.7 hPa SSW 0.8 mph /  1.3 km/h 3.2 mph /  5.1 km/h 88 % 0.0 in /  0 mm
19:04 0.9 °F /  -17.3 °C -0.9 °F /  -18.3 °C 1020.9 in /  34567.7 hPa SSW 0.8 mph /  1.3 km/h 3.2 mph /  5.1 km/h 88 % 0.0 in /  0 mm
19:09 0.9 °F /  -17.3 °C -0.9 °F /  -18.3 °C 1020.9 in /  34567.7 hPa South 1.0 mph /  1.6 km/h 4.3 mph /  6.9 km/h 88 % 0.0 in /  0 mm
19:14 0.9 °F /  -17.3 °C -0.9 °F /  -18.3 °C 1021.9 in /  34601.5 hPa South 1.3 mph /  2.1 km/h 4.3 mph /  6.9 km/h 88 % 0.0 in /  0 mm
19:19 0.9 °F /  -17.3 °C -0.9 °F /  -18.3 °C 1021.9 in /  34601.5 hPa SSE 1.6 mph /  2.6 km/h 5.0 mph /  8 km/h 88 % 0.0 in /  0 mm
19:24 0.9 °F /  -17.3 °C -0.9 °F /  -18.3 °C 1021.9 in /  34601.5 hPa SSE 1.9 mph /  3.1 km/h 5.5 mph /  8.9 km/h 88 % 0.0 in /  0 mm
19:29 0.9 °F /  -17.3 °C -0.9 °F /  -18.3 °C 1020.9 in /  34567.7 hPa SE 2.3 mph /  3.7 km/h 6.4 mph /  10.3 km/h 88 % 0.0 in /  0 mm
19:34 0.8 °F /  -17.3 °C -0.9 °F /  -18.3 °C 1020.9 in /  34567.7 hPa SE 1.8 mph /  2.9 km/h 6.4 mph /  10.3 km/h 88 % 0.0 in /  0 mm
19:39 0.8 °F /  -17.3 °C -0.9 °F /  -18.3 °C 1020.9 in /  34567.7 hPa SSW 0.6 mph /  1 km/h 4.0 mph /  6.4 km/h 88 % 0.0 in /  0 mm
19:44 0.8 °F /  -17.3 °C -0.9 °F /  -18.3 °C 1020.9 in /  34567.7 hPa SSW 1.6 mph /  2.6 km/h 6.4 mph /  10.3 km/h 88 % 0.0 in /  0 mm
19:49 0.7 °F /  -17.4 °C -1.1 °F /  -18.4 °C 1020.9 in /  34567.7 hPa SW 2.9 mph /  4.7 km/h 6.4 mph /  10.3 km/h 88 % 0.0 in /  0 mm
19:54 0.7 °F /  -17.4 °C -1.1 °F /  -18.4 °C 1020.9 in /  34567.7 hPa WSW 2.4 mph /  3.9 km/h 4.3 mph /  6.9 km/h 88 % 0.0 in /  0 mm
19:59 0.7 °F /  -17.4 °C -0.9 °F /  -18.3 °C 1020.9 in /  34567.7 hPa WSW 2.3 mph /  3.7 km/h 4.3 mph /  6.9 km/h 89 % 0.0 in /  0 mm
20:04 0.7 °F /  -17.4 °C -0.9 °F /  -18.3 °C 1020.9 in /  34567.7 hPa WSW 3.1 mph /  5 km/h 6.1 mph /  9.8 km/h 89 % 0.0 in /  0 mm
20:09 0.6 °F /  -17.4 °C -1.0 °F /  -18.3 °C 1020.9 in /  34567.7 hPa WSW 3.9 mph /  6.3 km/h 6.1 mph /  9.8 km/h 89 % 0.0 in /  0 mm
20:14 0.6 °F /  -17.4 °C -1.0 °F /  -18.3 °C 1019.9 in /  34533.8 hPa SW 4.0 mph /  6.4 km/h 6.1 mph /  9.8 km/h 89 % 0.0 in /  0 mm
20:19 0.6 °F /  -17.4 °C -1.0 °F /  -18.3 °C 1019.9 in /  34533.8 hPa SSW 3.5 mph /  5.6 km/h 6.1 mph /  9.8 km/h 89 % 0.0 in /  0 mm
20:24 0.6 °F /  -17.4 °C -1.0 °F /  -18.3 °C 1019.9 in /  34533.8 hPa South 3.5 mph /  5.6 km/h 7.9 mph /  12.7 km/h 89 % 0.0 in /  0 mm
20:29 0.6 °F /  -17.4 °C -1.0 °F /  -18.3 °C 1019.9 in /  34533.8 hPa South 4.3 mph /  6.9 km/h 7.9 mph /  12.7 km/h 89 % 0.0 in /  0 mm
20:34 0.6 °F /  -17.4 °C -1.0 °F /  -18.3 °C 1019.9 in /  34533.8 hPa South 4.3 mph /  6.9 km/h 6.9 mph /  11.1 km/h 89 % 0.0 in /  0 mm
20:39 0.6 °F /  -17.4 °C -1.0 °F /  -18.3 °C 1019.9 in /  34533.8 hPa SSW 3.9 mph /  6.3 km/h 5.8 mph /  9.3 km/h 89 % 0.0 in /  0 mm
20:44 0.5 °F /  -17.5 °C -1.1 °F /  -18.4 °C 1020.9 in /  34567.7 hPa South 3.7 mph /  6 km/h 6.1 mph /  9.8 km/h 89 % 0.0 in /  0 mm
20:49 0.5 °F /  -17.5 °C -1.1 °F /  -18.4 °C 1020.9 in /  34567.7 hPa South 3.1 mph /  5 km/h 6.1 mph /  9.8 km/h 89 % 0.0 in /  0 mm
20:54 0.5 °F /  -17.5 °C -1.1 °F /  -18.4 °C 1020.9 in /  34567.7 hPa SSW 3.5 mph /  5.6 km/h 6.4 mph /  10.3 km/h 89 % 0.0 in /  0 mm
20:59 0.4 °F /  -17.6 °C -1.2 °F /  -18.4 °C 1019.9 in /  34533.8 hPa SSW 4.2 mph /  6.8 km/h 6.4 mph /  10.3 km/h 89 % 0.0 in /  0 mm
21:04 0.4 °F /  -17.6 °C -1.2 °F /  -18.4 °C 1019.9 in /  34533.8 hPa SSW 1.9 mph /  3.1 km/h 5.5 mph /  8.9 km/h 89 % 0.0 in /  0 mm
21:09 0.4 °F /  -17.6 °C -1.2 °F /  -18.4 °C 1019.9 in /  34533.8 hPa SSW 1.0 mph /  1.6 km/h 4.7 mph /  7.6 km/h 89 % 0.0 in /  0 mm
21:14 0.4 °F /  -17.6 °C -1.2 °F /  -18.4 °C 1020.9 in /  34567.7 hPa SSW 2.6 mph /  4.2 km/h 5.8 mph /  9.3 km/h 89 % 0.0 in /  0 mm
21:19 0.4 °F /  -17.6 °C -1.2 °F /  -18.4 °C 1020.9 in /  34567.7 hPa SW 3.5 mph /  5.6 km/h 6.1 mph /  9.8 km/h 89 % 0.0 in /  0 mm
21:24 0.4 °F /  -17.6 °C -1.2 °F /  -18.4 °C 1020.9 in /  34567.7 hPa SSW 4.2 mph /  6.8 km/h 7.6 mph /  12.2 km/h 89 % 0.0 in /  0 mm
21:29 0.4 °F /  -17.6 °C -1.2 °F /  -18.4 °C 1020.9 in /  34567.7 hPa South 5.0 mph /  8 km/h 9.0 mph /  14.5 km/h 89 % 0.0 in /  0 mm
21:34 0.4 °F /  -17.6 °C -1.2 °F /  -18.4 °C 1020.9 in /  34567.7 hPa South 5.3 mph /  8.5 km/h 9.3 mph /  15 km/h 89 % 0.0 in /  0 mm
21:39 0.4 °F /  -17.6 °C -1.2 °F /  -18.4 °C 1020.9 in /  34567.7 hPa South 4.0 mph /  6.4 km/h 9.3 mph /  15 km/h 89 % 0.0 in /  0 mm
21:44 0.4 °F /  -17.6 °C -1.2 °F /  -18.4 °C 1020.9 in /  34567.7 hPa South 3.4 mph /  5.5 km/h 6.4 mph /  10.3 km/h 89 % 0.0 in /  0 mm
21:49 0.4 °F /  -17.6 °C -1.2 °F /  -18.4 °C 1020.9 in /  34567.7 hPa SSW 3.7 mph /  6 km/h 5.8 mph /  9.3 km/h 89 % 0.0 in /  0 mm
21:54 0.4 °F /  -17.6 °C -1.2 °F /  -18.4 °C 1020.9 in /  34567.7 hPa SSW 3.4 mph /  5.5 km/h 5.8 mph /  9.3 km/h 89 % 0.0 in /  0 mm
21:59 0.4 °F /  -17.6 °C -1.2 °F /  -18.4 °C 1021.9 in /  34601.5 hPa South 3.1 mph /  5 km/h 5.8 mph /  9.3 km/h 89 % 0.0 in /  0 mm
22:04 0.3 °F /  -17.6 °C -1.3 °F /  -18.5 °C 1021.9 in /  34601.5 hPa South 3.2 mph /  5.1 km/h 5.8 mph /  9.3 km/h 89 % 0.0 in /  0 mm
22:09 0.3 °F /  -17.6 °C -1.3 °F /  -18.5 °C 1021.9 in /  34601.5 hPa South 2.6 mph /  4.2 km/h 5.8 mph /  9.3 km/h 89 % 0.0 in /  0 mm
22:14 0.3 °F /  -17.6 °C -1.3 °F /  -18.5 °C 1021.9 in /  34601.5 hPa South 2.4 mph /  3.9 km/h 4.7 mph /  7.6 km/h 89 % 0.0 in /  0 mm
22:19 0.3 °F /  -17.6 °C -1.3 °F /  -18.5 °C 1021.9 in /  34601.5 hPa SSW 3.5 mph /  5.6 km/h 6.4 mph /  10.3 km/h 89 % 0.0 in /  0 mm
22:24 0.2 °F /  -17.7 °C -1.4 °F /  -18.6 °C 1020.9 in /  34567.7 hPa WSW 4.0 mph /  6.4 km/h 6.4 mph /  10.3 km/h 89 % 0.0 in /  0 mm
22:29 0.2 °F /  -17.7 °C -1.4 °F /  -18.6 °C 1020.9 in /  34567.7 hPa WSW 3.2 mph /  5.1 km/h 6.4 mph /  10.3 km/h 89 % 0.0 in /  0 mm
22:34 0.1 °F /  -17.7 °C -1.5 °F /  -18.6 °C 1020.9 in /  34567.7 hPa WSW 2.9 mph /  4.7 km/h 5.8 mph /  9.3 km/h 89 % 0.0 in /  0 mm
22:39 0.1 °F /  -17.7 °C -1.5 °F /  -18.6 °C 1020.9 in /  34567.7 hPa WSW 4.2 mph /  6.8 km/h 6.4 mph /  10.3 km/h 89 % 0.0 in /  0 mm
22:44 0.1 °F /  -17.7 °C -1.5 °F /  -18.6 °C 1020.9 in /  34567.7 hPa WSW 4.8 mph /  7.7 km/h 6.4 mph /  10.3 km/h 89 % 0.0 in /  0 mm
22:50 0.1 °F /  -17.7 °C -1.5 °F /  -18.6 °C 1020.9 in /  34567.7 hPa SW 3.1 mph /  5 km/h 6.1 mph /  9.8 km/h 89 % 0.0 in /  0 mm
22:55 0.1 °F /  -17.7 °C -1.5 °F /  -18.6 °C 1020.9 in /  34567.7 hPa SSE 1.8 mph /  2.9 km/h 4.3 mph /  6.9 km/h 89 % 0.0 in /  0 mm
23:00 0.1 °F /  -17.7 °C -1.5 °F /  -18.6 °C 1020.9 in /  34567.7 hPa SSE 1.3 mph /  2.1 km/h 4.3 mph /  6.9 km/h 89 % 0.0 in /  0 mm
23:05 0.1 °F /  -17.7 °C -1.5 °F /  -18.6 °C 1020.9 in /  34567.7 hPa SW 0.6 mph /  1 km/h 4.0 mph /  6.4 km/h 89 % 0.0 in /  0 mm
23:10 0.1 °F /  -17.7 °C -1.5 °F /  -18.6 °C 1020.9 in /  34567.7 hPa SW 0.5 mph /  0.8 km/h 1.8 mph /  2.9 km/h 89 % 0.0 in /  0 mm
23:15 0.1 °F /  -17.7 °C -1.5 °F /  -18.6 °C 1020.9 in /  34567.7 hPa South 0.5 mph /  0.8 km/h 4.3 mph /  6.9 km/h 89 % 0.0 in /  0 mm
23:20 0.1 °F /  -17.7 °C -1.5 °F /  -18.6 °C 1020.9 in /  34567.7 hPa SSW 0.8 mph /  1.3 km/h 4.3 mph /  6.9 km/h 89 % 0.0 in /  0 mm
23:25 0.1 °F /  -17.7 °C -1.3 °F /  -18.5 °C 1020.9 in /  34567.7 hPa SSW 0.3 mph /  0.5 km/h 2.6 mph /  4.2 km/h 90 % 0.0 in /  0 mm
23:30 0.1 °F /  -17.7 °C -1.3 °F /  -18.5 °C 1020.9 in /  34567.7 hPa Calm     90 % 0.0 in /  0 mm
23:35 0.1 °F /  -17.7 °C -1.3 °F /  -18.5 °C 1020.9 in /  34567.7 hPa Calm     90 % 0.0 in /  0 mm
23:40 0.1 °F /  -17.7 °C -1.3 °F /  -18.5 °C 1020.9 in /  34567.7 hPa Calm     90 % 0.0 in /  0 mm
23:45 0.1 °F /  -17.7 °C -1.3 °F /  -18.5 °C 1020.9 in /  34567.7 hPa Calm     90 % 0.0 in /  0 mm
23:50 0.1 °F /  -17.7 °C -1.3 °F /  -18.5 °C 1020.9 in /  34567.7 hPa Calm     90 % 0.0 in /  0 mm
23:55 0.1 °F /  -17.7 °C -1.3 °F /  -18.5 °C 1020.9 in /  34567.7 hPa Calm     90 % 0.0 in /  0 mm
Vremenska postaja Senovo
Podatki zbrani iz Weather Underground - 3 mb

Script developed by  Jim McMurry - jmcmurry@mwt.net Adapted for the template by  Wim van der Kuil - Leuven-Template.eu

Vremenski podatki so objavljeni na:

European Weather Network

WeatherCloud

Weather Underground

AWEKAS

HAMweather, WeatherForYou, PWS Weather

MapView

Geostik

Slovenia weather network

Oprema, ki se uporablja:

Vremenski program
Cumulus

Vremenski server
Asus

Cumulus

Asus